sensor_id;sensor_type;location;lat;lon;timestamp;pressure;altitude;pressure_sealevel;temperature;humidity
10261;BME280;5175;42.606;23.388;2023-03-21T00:01:44;93604.84;;;11.94;61.68
10261;BME280;5175;42.606;23.388;2023-03-21T00:04:10;93609.78;;;11.87;62.68
10261;BME280;5175;42.606;23.388;2023-03-21T00:06:37;93604.34;;;11.92;62.17
10261;BME280;5175;42.606;23.388;2023-03-21T00:09:04;93604.00;;;11.99;61.77
10261;BME280;5175;42.606;23.388;2023-03-21T00:11:33;93604.75;;;12.00;61.86
10261;BME280;5175;42.606;23.388;2023-03-21T00:14:00;93597.03;;;11.98;62.03
10261;BME280;5175;42.606;23.388;2023-03-21T00:16:27;93592.66;;;11.88;62.32
10261;BME280;5175;42.606;23.388;2023-03-21T00:19:00;93596.09;;;11.89;62.25
10261;BME280;5175;42.606;23.388;2023-03-21T00:21:28;93594.03;;;11.86;62.18
10261;BME280;5175;42.606;23.388;2023-03-21T00:23:58;93594.94;;;11.95;62.29
10261;BME280;5175;42.606;23.388;2023-03-21T00:26:26;93592.94;;;11.87;62.55
10261;BME280;5175;42.606;23.388;2023-03-21T00:28:54;93596.72;;;11.86;62.50
10261;BME280;5175;42.606;23.388;2023-03-21T00:31:21;93594.16;;;11.94;61.54
10261;BME280;5175;42.606;23.388;2023-03-21T00:33:47;93592.69;;;12.02;61.13
10261;BME280;5175;42.606;23.388;2023-03-21T00:36:14;93601.28;;;12.18;60.53
10261;BME280;5175;42.606;23.388;2023-03-21T00:38:41;93590.75;;;12.08;60.10
10261;BME280;5175;42.606;23.388;2023-03-21T00:41:10;93612.06;;;12.13;60.02
10261;BME280;5175;42.606;23.388;2023-03-21T00:43:39;93612.72;;;12.05;59.91
10261;BME280;5175;42.606;23.388;2023-03-21T00:46:07;93617.41;;;11.94;61.12
10261;BME280;5175;42.606;23.388;2023-03-21T00:48:33;93612.94;;;11.89;60.85
10261;BME280;5175;42.606;23.388;2023-03-21T00:51:00;93615.13;;;11.87;61.79
10261;BME280;5175;42.606;23.388;2023-03-21T00:53:27;93608.97;;;11.87;58.88
10261;BME280;5175;42.606;23.388;2023-03-21T00:55:55;93611.22;;;11.80;57.40
10261;BME280;5175;42.606;23.388;2023-03-21T00:58:22;93601.47;;;11.70;57.09
10261;BME280;5175;42.606;23.388;2023-03-21T01:00:48;93593.19;;;11.48;57.69
10261;BME280;5175;42.606;23.388;2023-03-21T01:03:17;93604.91;;;11.52;58.13
10261;BME280;5175;42.606;23.388;2023-03-21T01:05:46;93602.56;;;11.46;59.91
10261;BME280;5175;42.606;23.388;2023-03-21T01:08:30;93603.75;;;11.40;60.68
10261;BME280;5175;42.606;23.388;2023-03-21T01:11:01;93605.84;;;11.43;61.25
10261;BME280;5175;42.606;23.388;2023-03-21T01:13:28;93600.53;;;11.38;60.05
10261;BME280;5175;42.606;23.388;2023-03-21T01:15:56;93595.50;;;11.36;61.31
10261;BME280;5175;42.606;23.388;2023-03-21T01:18:25;93599.50;;;11.15;63.40
10261;BME280;5175;42.606;23.388;2023-03-21T01:20:53;93603.78;;;11.16;63.23
10261;BME280;5175;42.606;23.388;2023-03-21T01:23:20;93599.88;;;11.08;63.08
10261;BME280;5175;42.606;23.388;2023-03-21T01:25:48;93593.50;;;11.04;63.23
10261;BME280;5175;42.606;23.388;2023-03-21T01:28:15;93592.53;;;10.95;63.64
10261;BME280;5175;42.606;23.388;2023-03-21T01:30:44;93592.94;;;10.84;64.37
10261;BME280;5175;42.606;23.388;2023-03-21T01:33:11;93587.44;;;10.75;64.26
10261;BME280;5175;42.606;23.388;2023-03-21T01:35:39;93588.78;;;10.49;65.44
10261;BME280;5175;42.606;23.388;2023-03-21T01:38:06;93596.38;;;10.37;66.36
10261;BME280;5175;42.606;23.388;2023-03-21T01:40:34;93582.88;;;10.23;67.01
10261;BME280;5175;42.606;23.388;2023-03-21T01:43:01;93590.34;;;10.26;66.94
10261;BME280;5175;42.606;23.388;2023-03-21T01:48:50;93587.28;;;10.04;68.36
10261;BME280;5175;42.606;23.388;2023-03-21T01:51:22;93595.91;;;9.96;69.47
10261;BME280;5175;42.606;23.388;2023-03-21T01:53:50;93592.56;;;9.80;70.73
10261;BME280;5175;42.606;23.388;2023-03-21T01:56:19;93585.72;;;9.64;71.63
10261;BME280;5175;42.606;23.388;2023-03-21T01:58:50;93584.69;;;9.65;71.92
10261;BME280;5175;42.606;23.388;2023-03-21T02:01:19;93589.81;;;9.52;73.11
10261;BME280;5175;42.606;23.388;2023-03-21T02:03:48;93576.72;;;9.60;72.67
10261;BME280;5175;42.606;23.388;2023-03-21T02:06:21;93589.16;;;9.70;72.45
10261;BME280;5175;42.606;23.388;2023-03-21T02:08:51;93585.44;;;9.66;72.71
10261;BME280;5175;42.606;23.388;2023-03-21T02:11:18;93584.81;;;9.79;72.38
10261;BME280;5175;42.606;23.388;2023-03-21T02:13:46;93588.34;;;9.69;73.08
10261;BME280;5175;42.606;23.388;2023-03-21T02:16:17;93579.56;;;9.25;74.86
10261;BME280;5175;42.606;23.388;2023-03-21T02:18:52;93573.34;;;9.01;76.17
10261;BME280;5175;42.606;23.388;2023-03-21T02:21:39;93577.66;;;8.81;79.04
10261;BME280;5175;42.606;23.388;2023-03-21T02:24:27;93573.94;;;8.82;79.62
10261;BME280;5175;42.606;23.388;2023-03-21T02:27:11;93580.09;;;8.68;80.07
10261;BME280;5175;42.606;23.388;2023-03-21T02:30:02;93589.88;;;8.88;78.27
10261;BME280;5175;42.606;23.388;2023-03-21T02:32:45;93568.88;;;8.81;78.39
10261;BME280;5175;42.606;23.388;2023-03-21T02:35:30;93576.66;;;8.67;80.53
10261;BME280;5175;42.606;23.388;2023-03-21T02:38:04;93576.84;;;8.81;79.17
10261;BME280;5175;42.606;23.388;2023-03-21T02:40:38;93572.84;;;8.89;77.40
10261;BME280;5175;42.606;23.388;2023-03-21T02:43:09;93574.38;;;9.05;75.95
10261;BME280;5175;42.606;23.388;2023-03-21T02:45:41;93572.47;;;9.10;75.23
10261;BME280;5175;42.606;23.388;2023-03-21T02:48:12;93568.97;;;9.20;74.75
10261;BME280;5175;42.606;23.388;2023-03-21T02:50:42;93571.41;;;9.16;74.79
10261;BME280;5175;42.606;23.388;2023-03-21T02:53:15;93548.59;;;8.95;74.66
10261;BME280;5175;42.606;23.388;2023-03-21T02:55:44;93558.69;;;9.03;73.85
10261;BME280;5175;42.606;23.388;2023-03-21T02:58:14;93566.34;;;9.10;73.80
10261;BME280;5175;42.606;23.388;2023-03-21T03:00:42;93563.47;;;8.96;74.77
10261;BME280;5175;42.606;23.388;2023-03-21T03:03:10;93541.66;;;8.99;74.15
10261;BME280;5175;42.606;23.388;2023-03-21T03:05:42;93556.31;;;8.97;73.60
10261;BME280;5175;42.606;23.388;2023-03-21T03:08:19;93556.28;;;9.02;73.45
10261;BME280;5175;42.606;23.388;2023-03-21T03:10:59;93555.50;;;9.01;72.65
10261;BME280;5175;42.606;23.388;2023-03-21T03:13:41;93559.47;;;9.04;73.62
10261;BME280;5175;42.606;23.388;2023-03-21T03:16:18;93557.28;;;9.16;73.76
10261;BME280;5175;42.606;23.388;2023-03-21T03:18:52;93569.47;;;9.22;73.59
10261;BME280;5175;42.606;23.388;2023-03-21T03:21:21;93552.47;;;9.18;73.11
10261;BME280;5175;42.606;23.388;2023-03-21T03:23:56;93554.59;;;9.21;72.40
10261;BME280;5175;42.606;23.388;2023-03-21T03:26:28;93562.56;;;9.21;70.79
10261;BME280;5175;42.606;23.388;2023-03-21T03:29:00;93559.28;;;9.39;69.79
10261;BME280;5175;42.606;23.388;2023-03-21T03:31:33;93561.19;;;9.28;70.79
10261;BME280;5175;42.606;23.388;2023-03-21T03:34:05;93560.09;;;9.34;71.07
10261;BME280;5175;42.606;23.388;2023-03-21T03:36:35;93559.25;;;9.44;72.24
10261;BME280;5175;42.606;23.388;2023-03-21T03:39:07;93564.63;;;9.34;72.83
10261;BME280;5175;42.606;23.388;2023-03-21T03:41:41;93561.50;;;9.22;74.27
10261;BME280;5175;42.606;23.388;2023-03-21T03:44:09;93570.06;;;9.14;75.82
10261;BME280;5175;42.606;23.388;2023-03-21T03:46:42;93574.13;;;9.01;76.81
10261;BME280;5175;42.606;23.388;2023-03-21T03:49:13;93575.75;;;8.92;77.14
10261;BME280;5175;42.606;23.388;2023-03-21T03:51:49;93573.09;;;8.92;77.32
10261;BME280;5175;42.606;23.388;2023-03-21T03:54:21;93580.28;;;8.92;77.08
10261;BME280;5175;42.606;23.388;2023-03-21T03:56:50;93576.63;;;8.77;77.45
10261;BME280;5175;42.606;23.388;2023-03-21T03:59:17;93577.75;;;8.51;79.21
10261;BME280;5175;42.606;23.388;2023-03-21T04:01:46;93559.38;;;8.70;78.14
10261;BME280;5175;42.606;23.388;2023-03-21T04:04:13;93571.84;;;8.74;78.65
10261;BME280;5175;42.606;23.388;2023-03-21T04:06:41;93551.66;;;8.63;78.80
10261;BME280;5175;42.606;23.388;2023-03-21T04:09:10;93562.66;;;8.42;80.74
10261;BME280;5175;42.606;23.388;2023-03-21T04:11:38;93565.31;;;8.37;81.07
10261;BME280;5175;42.606;23.388;2023-03-21T04:14:05;93566.66;;;8.34;81.67
10261;BME280;5175;42.606;23.388;2023-03-21T04:16:31;93561.34;;;8.34;81.56
10261;BME280;5175;42.606;23.388;2023-03-21T04:18:58;93556.00;;;8.39;81.60
10261;BME280;5175;42.606;23.388;2023-03-21T04:21:25;93565.59;;;8.15;84.19
10261;BME280;5175;42.606;23.388;2023-03-21T04:23:53;93565.56;;;8.20;83.88
10261;BME280;5175;42.606;23.388;2023-03-21T04:26:20;93561.34;;;7.99;86.09
10261;BME280;5175;42.606;23.388;2023-03-21T04:28:49;93561.38;;;7.79;87.65
10261;BME280;5175;42.606;23.388;2023-03-21T04:31:16;93552.59;;;7.53;90.74
10261;BME280;5175;42.606;23.388;2023-03-21T04:33:43;93546.78;;;7.51;91.05
10261;BME280;5175;42.606;23.388;2023-03-21T04:36:12;93556.59;;;7.45;91.97
10261;BME280;5175;42.606;23.388;2023-03-21T04:38:49;93563.50;;;7.36;90.52
10261;BME280;5175;42.606;23.388;2023-03-21T04:41:16;93563.75;;;7.45;88.97
10261;BME280;5175;42.606;23.388;2023-03-21T04:43:43;93562.69;;;7.61;87.77
10261;BME280;5175;42.606;23.388;2023-03-21T04:46:11;93570.94;;;7.49;88.47
10261;BME280;5175;42.606;23.388;2023-03-21T04:48:38;93542.78;;;7.38;88.38
10261;BME280;5175;42.606;23.388;2023-03-21T04:51:05;93531.13;;;7.44;87.52
10261;BME280;5175;42.606;23.388;2023-03-21T04:53:32;93558.47;;;7.75;85.47
10261;BME280;5175;42.606;23.388;2023-03-21T04:55:59;93557.66;;;7.70;85.11
10261;BME280;5175;42.606;23.388;2023-03-21T04:58:26;93537.19;;;7.55;84.45
10261;BME280;5175;42.606;23.388;2023-03-21T05:00:52;93568.78;;;7.97;82.63
10261;BME280;5175;42.606;23.388;2023-03-21T05:03:20;93576.50;;;8.13;81.46
10261;BME280;5175;42.606;23.388;2023-03-21T05:05:47;93574.63;;;8.09;81.81
10261;BME280;5175;42.606;23.388;2023-03-21T05:08:15;93575.44;;;7.94;83.38
10261;BME280;5175;42.606;23.388;2023-03-21T05:10:42;93571.47;;;7.87;84.50
10261;BME280;5175;42.606;23.388;2023-03-21T05:13:09;93571.19;;;7.78;86.27
10261;BME280;5175;42.606;23.388;2023-03-21T05:15:35;93572.78;;;7.69;87.06
10261;BME280;5175;42.606;23.388;2023-03-21T05:18:02;93574.38;;;7.90;86.43
10261;BME280;5175;42.606;23.388;2023-03-21T05:20:37;93579.94;;;7.89;87.12
10261;BME280;5175;42.606;23.388;2023-03-21T05:23:07;93579.69;;;8.00;85.84
10261;BME280;5175;42.606;23.388;2023-03-21T05:25:35;93580.72;;;8.19;83.94
10261;BME280;5175;42.606;23.388;2023-03-21T05:28:03;93581.53;;;8.30;83.71
10261;BME280;5175;42.606;23.388;2023-03-21T05:30:30;93578.63;;;8.27;83.24
10261;BME280;5175;42.606;23.388;2023-03-21T05:32:57;93585.50;;;8.33;83.37
10261;BME280;5175;42.606;23.388;2023-03-21T05:35:24;93590.28;;;8.36;84.11
10261;BME280;5175;42.606;23.388;2023-03-21T05:37:52;93580.69;;;8.55;81.68
10261;BME280;5175;42.606;23.388;2023-03-21T05:40:19;93578.78;;;8.60;81.38
10261;BME280;5175;42.606;23.388;2023-03-21T05:42:46;93573.75;;;8.64;80.91
10261;BME280;5175;42.606;23.388;2023-03-21T05:45:14;93578.78;;;8.65;82.36
10261;BME280;5175;42.606;23.388;2023-03-21T05:47:41;93574.75;;;8.83;81.32
10261;BME280;5175;42.606;23.388;2023-03-21T05:50:09;93581.34;;;8.96;80.04
10261;BME280;5175;42.606;23.388;2023-03-21T05:52:35;93577.78;;;9.15;79.34
10261;BME280;5175;42.606;23.388;2023-03-21T05:55:05;93568.41;;;9.23;79.91
10261;BME280;5175;42.606;23.388;2023-03-21T05:57:31;93569.97;;;9.34;79.59
10261;BME280;5175;42.606;23.388;2023-03-21T06:00:04;93566.59;;;9.18;80.37
10261;BME280;5175;42.606;23.388;2023-03-21T06:02:31;93566.69;;;8.98;82.13
10261;BME280;5175;42.606;23.388;2023-03-21T06:04:58;93558.50;;;8.85;84.08
10261;BME280;5175;42.606;23.388;2023-03-21T06:07:25;93559.28;;;8.90;83.67
10261;BME280;5175;42.606;23.388;2023-03-21T06:09:51;93562.75;;;8.91;83.46
10261;BME280;5175;42.606;23.388;2023-03-21T06:12:19;93557.97;;;8.82;83.80
10261;BME280;5175;42.606;23.388;2023-03-21T06:14:46;93542.84;;;8.78;85.43
10261;BME280;5175;42.606;23.388;2023-03-21T06:17:13;93546.75;;;8.96;86.57
10261;BME280;5175;42.606;23.388;2023-03-21T06:19:40;93548.06;;;8.98;86.67
10261;BME280;5175;42.606;23.388;2023-03-21T06:22:06;93537.59;;;9.12;86.46
10261;BME280;5175;42.606;23.388;2023-03-21T06:24:33;93543.50;;;9.09;88.13
10261;BME280;5175;42.606;23.388;2023-03-21T06:27:00;93537.75;;;9.30;87.06
10261;BME280;5175;42.606;23.388;2023-03-21T06:29:28;93542.13;;;9.50;85.71
10261;BME280;5175;42.606;23.388;2023-03-21T06:31:56;93523.50;;;9.50;83.71
10261;BME280;5175;42.606;23.388;2023-03-21T06:34:22;93538.00;;;9.73;82.61
10261;BME280;5175;42.606;23.388;2023-03-21T06:36:49;93536.81;;;9.84;81.44
10261;BME280;5175;42.606;23.388;2023-03-21T06:39:16;93544.72;;;9.94;80.63
10261;BME280;5175;42.606;23.388;2023-03-21T06:41:43;93535.56;;;10.05;80.04
10261;BME280;5175;42.606;23.388;2023-03-21T06:44:10;93549.16;;;10.08;78.02
10261;BME280;5175;42.606;23.388;2023-03-21T06:46:38;93523.16;;;9.95;78.46
10261;BME280;5175;42.606;23.388;2023-03-21T06:49:04;93551.78;;;10.14;80.96
10261;BME280;5175;42.606;23.388;2023-03-21T06:51:31;93553.75;;;10.32;79.50
10261;BME280;5175;42.606;23.388;2023-03-21T06:53:58;93551.13;;;10.50;78.11
10261;BME280;5175;42.606;23.388;2023-03-21T06:56:25;93549.03;;;10.71;75.27
10261;BME280;5175;42.606;23.388;2023-03-21T06:58:52;93554.88;;;10.97;74.33
10261;BME280;5175;42.606;23.388;2023-03-21T07:01:18;93540.78;;;11.33;88.12
10261;BME280;5175;42.606;23.388;2023-03-21T07:03:47;93549.75;;;11.80;79.32
10261;BME280;5175;42.606;23.388;2023-03-21T07:06:14;93558.56;;;12.58;85.46
10261;BME280;5175;42.606;23.388;2023-03-21T07:08:41;93548.69;;;13.13;84.88
10261;BME280;5175;42.606;23.388;2023-03-21T07:11:08;93567.09;;;13.42;73.56
10261;BME280;5175;42.606;23.388;2023-03-21T07:13:35;93555.84;;;13.90;76.00
10261;BME280;5175;42.606;23.388;2023-03-21T07:16:02;93560.09;;;14.13;75.16
10261;BME280;5175;42.606;23.388;2023-03-21T07:18:29;93573.78;;;14.25;72.33
10261;BME280;5175;42.606;23.388;2023-03-21T07:20:57;93568.28;;;14.52;75.40
10261;BME280;5175;42.606;23.388;2023-03-21T07:23:25;93573.00;;;14.77;72.28
10261;BME280;5175;42.606;23.388;2023-03-21T07:25:52;93579.34;;;14.81;62.15
10261;BME280;5175;42.606;23.388;2023-03-21T07:28:20;93580.16;;;14.90;65.91
10261;BME280;5175;42.606;23.388;2023-03-21T07:30:51;93582.84;;;14.90;62.68
10261;BME280;5175;42.606;23.388;2023-03-21T07:33:18;93576.44;;;15.09;62.99
10261;BME280;5175;42.606;23.388;2023-03-21T07:35:45;93578.47;;;15.03;57.22
10261;BME280;5175;42.606;23.388;2023-03-21T07:38:14;93577.94;;;14.84;64.91
10261;BME280;5175;42.606;23.388;2023-03-21T07:40:42;93573.28;;;15.07;58.83
10261;BME280;5175;42.606;23.388;2023-03-21T07:43:08;93561.81;;;15.32;69.93
10261;BME280;5175;42.606;23.388;2023-03-21T07:45:35;93562.50;;;15.46;65.73
10261;BME280;5175;42.606;23.388;2023-03-21T07:48:02;93558.25;;;15.62;73.50
10261;BME280;5175;42.606;23.388;2023-03-21T07:50:29;93564.94;;;15.90;71.90
10261;BME280;5175;42.606;23.388;2023-03-21T07:52:56;93574.28;;;16.01;63.59
10261;BME280;5175;42.606;23.388;2023-03-21T07:55:24;93578.22;;;16.21;67.98
10261;BME280;5175;42.606;23.388;2023-03-21T07:57:51;93578.41;;;16.07;62.89
10261;BME280;5175;42.606;23.388;2023-03-21T08:00:19;93570.63;;;15.97;66.28
10261;BME280;5175;42.606;23.388;2023-03-21T08:02:49;93568.41;;;16.08;67.60
10261;BME280;5175;42.606;23.388;2023-03-21T08:05:19;93570.97;;;16.04;60.85
10261;BME280;5175;42.606;23.388;2023-03-21T08:07:46;93591.38;;;16.05;60.55
10261;BME280;5175;42.606;23.388;2023-03-21T08:10:13;93582.19;;;16.32;64.50
10261;BME280;5175;42.606;23.388;2023-03-21T08:12:41;93581.88;;;16.25;59.35
10261;BME280;5175;42.606;23.388;2023-03-21T08:15:09;93563.47;;;16.44;62.15
10261;BME280;5175;42.606;23.388;2023-03-21T08:17:37;93571.69;;;16.73;61.17
10261;BME280;5175;42.606;23.388;2023-03-21T08:20:05;93572.75;;;16.89;61.46
10261;BME280;5175;42.606;23.388;2023-03-21T08:22:33;93573.16;;;17.09;60.56
10261;BME280;5175;42.606;23.388;2023-03-21T08:25:00;93563.41;;;17.25;58.88
10261;BME280;5175;42.606;23.388;2023-03-21T08:27:28;93565.13;;;17.29;55.14
10261;BME280;5175;42.606;23.388;2023-03-21T08:29:56;93561.41;;;17.42;56.14
10261;BME280;5175;42.606;23.388;2023-03-21T08:32:23;93559.56;;;17.64;56.09
10261;BME280;5175;42.606;23.388;2023-03-21T08:34:53;93567.13;;;17.70;52.09
10261;BME280;5175;42.606;23.388;2023-03-21T08:37:22;93569.13;;;17.82;53.77
10261;BME280;5175;42.606;23.388;2023-03-21T08:39:49;93573.09;;;17.84;52.61
10261;BME280;5175;42.606;23.388;2023-03-21T08:42:15;93572.78;;;17.57;52.57
10261;BME280;5175;42.606;23.388;2023-03-21T08:44:42;93577.59;;;17.42;52.79
10261;BME280;5175;42.606;23.388;2023-03-21T08:47:10;93575.69;;;17.43;51.17
10261;BME280;5175;42.606;23.388;2023-03-21T08:49:37;93566.13;;;17.54;52.90
10261;BME280;5175;42.606;23.388;2023-03-21T08:52:05;93560.69;;;17.63;53.08
10261;BME280;5175;42.606;23.388;2023-03-21T08:54:32;93570.47;;;17.38;53.09
10261;BME280;5175;42.606;23.388;2023-03-21T08:56:58;93558.66;;;17.22;52.36
10261;BME280;5175;42.606;23.388;2023-03-21T08:59:25;93562.41;;;17.38;53.87
10261;BME280;5175;42.606;23.388;2023-03-21T09:01:52;93572.22;;;17.34;51.86
10261;BME280;5175;42.606;23.388;2023-03-21T09:04:20;93567.91;;;17.41;54.27
10261;BME280;5175;42.606;23.388;2023-03-21T09:06:50;93553.16;;;17.39;53.43
10261;BME280;5175;42.606;23.388;2023-03-21T09:09:17;93560.53;;;17.59;54.11
10261;BME280;5175;42.606;23.388;2023-03-21T09:11:43;93549.69;;;17.38;51.67
10261;BME280;5175;42.606;23.388;2023-03-21T09:14:10;93560.56;;;17.21;51.17
10261;BME280;5175;42.606;23.388;2023-03-21T09:16:37;93554.91;;;17.43;53.84
10261;BME280;5175;42.606;23.388;2023-03-21T09:19:04;93557.41;;;17.48;50.81
10261;BME280;5175;42.606;23.388;2023-03-21T09:21:34;93552.94;;;17.61;52.06
10261;BME280;5175;42.606;23.388;2023-03-21T09:24:03;93546.09;;;17.64;51.06
10261;BME280;5175;42.606;23.388;2023-03-21T09:26:30;93538.56;;;17.90;51.94
10261;BME280;5175;42.606;23.388;2023-03-21T09:28:57;93530.63;;;17.73;50.63
10261;BME280;5175;42.606;23.388;2023-03-21T09:31:25;93539.16;;;17.54;46.56
10261;BME280;5175;42.606;23.388;2023-03-21T09:33:53;93536.75;;;17.23;47.46
10261;BME280;5175;42.606;23.388;2023-03-21T09:36:22;93531.38;;;16.85;47.65
10261;BME280;5175;42.606;23.388;2023-03-21T09:38:53;93533.00;;;16.69;50.17
10261;BME280;5175;42.606;23.388;2023-03-21T09:41:38;93519.25;;;17.00;53.29
10261;BME280;5175;42.606;23.388;2023-03-21T09:44:17;93522.53;;;17.43;49.01
10261;BME280;5175;42.606;23.388;2023-03-21T09:46:51;93516.91;;;17.57;52.54
10261;BME280;5175;42.606;23.388;2023-03-21T09:49:23;93511.47;;;17.86;51.71
10261;BME280;5175;42.606;23.388;2023-03-21T09:51:57;93517.97;;;18.06;46.93
10261;BME280;5175;42.606;23.388;2023-03-21T09:54:31;93513.97;;;17.91;45.51
10261;BME280;5175;42.606;23.388;2023-03-21T09:57:03;93514.75;;;17.71;47.85
10261;BME280;5175;42.606;23.388;2023-03-21T09:59:33;93513.00;;;17.46;47.62
10261;BME280;5175;42.606;23.388;2023-03-21T10:02:25;93510.81;;;17.10;46.47
10261;BME280;5175;42.606;23.388;2023-03-21T10:04:57;93519.16;;;17.55;45.51
10261;BME280;5175;42.606;23.388;2023-03-21T10:07:25;93503.44;;;17.28;48.18
10261;BME280;5175;42.606;23.388;2023-03-21T10:09:54;93505.59;;;17.34;47.16
10261;BME280;5175;42.606;23.388;2023-03-21T10:12:22;93504.28;;;17.90;45.81
10261;BME280;5175;42.606;23.388;2023-03-21T10:14:56;93492.00;;;18.13;45.29
10261;BME280;5175;42.606;23.388;2023-03-21T10:17:26;93484.31;;;18.36;44.46
10261;BME280;5175;42.606;23.388;2023-03-21T10:20:00;93483.06;;;18.34;42.51
10261;BME280;5175;42.606;23.388;2023-03-21T10:22:35;93481.38;;;18.29;42.24
10261;BME280;5175;42.606;23.388;2023-03-21T10:25:05;93473.44;;;18.45;44.00
10261;BME280;5175;42.606;23.388;2023-03-21T10:27:33;93494.22;;;18.65;40.93
10261;BME280;5175;42.606;23.388;2023-03-21T10:30:02;93498.59;;;18.57;41.21
10261;BME280;5175;42.606;23.388;2023-03-21T10:32:32;93505.69;;;18.29;40.16
10261;BME280;5175;42.606;23.388;2023-03-21T10:34:59;93508.94;;;18.55;40.91
10261;BME280;5175;42.606;23.388;2023-03-21T10:37:29;93511.00;;;18.58;37.60
10261;BME280;5175;42.606;23.388;2023-03-21T10:39:57;93502.66;;;18.31;37.79
10261;BME280;5175;42.606;23.388;2023-03-21T10:42:28;93499.44;;;18.17;38.34
10261;BME280;5175;42.606;23.388;2023-03-21T10:44:57;93492.13;;;17.84;42.02
10261;BME280;5175;42.606;23.388;2023-03-21T10:47:25;93495.88;;;17.92;41.00
10261;BME280;5175;42.606;23.388;2023-03-21T10:49:53;93495.78;;;17.80;40.41
10261;BME280;5175;42.606;23.388;2023-03-21T10:52:21;93487.13;;;17.95;39.54
10261;BME280;5175;42.606;23.388;2023-03-21T10:54:49;93488.03;;;17.78;40.12
10261;BME280;5175;42.606;23.388;2023-03-21T10:57:19;93478.44;;;17.89;41.65
10261;BME280;5175;42.606;23.388;2023-03-21T10:59:50;93476.13;;;18.00;41.14
10261;BME280;5175;42.606;23.388;2023-03-21T11:02:23;93474.16;;;18.21;40.41
10261;BME280;5175;42.606;23.388;2023-03-21T11:04:52;93472.31;;;18.13;40.17
10261;BME280;5175;42.606;23.388;2023-03-21T11:07:21;93468.31;;;18.31;39.97
10261;BME280;5175;42.606;23.388;2023-03-21T11:09:54;93469.31;;;18.27;40.75
10261;BME280;5175;42.606;23.388;2023-03-21T11:12:29;93468.31;;;18.31;41.28
10261;BME280;5175;42.606;23.388;2023-03-21T11:14:57;93460.59;;;18.42;40.14
10261;BME280;5175;42.606;23.388;2023-03-21T11:17:39;93462.59;;;18.33;40.35
10261;BME280;5175;42.606;23.388;2023-03-21T11:20:07;93466.09;;;18.33;39.63
10261;BME280;5175;42.606;23.388;2023-03-21T11:22:38;93461.78;;;18.20;40.22
10261;BME280;5175;42.606;23.388;2023-03-21T11:25:09;93463.84;;;18.35;38.51
10261;BME280;5175;42.606;23.388;2023-03-21T11:27:46;93446.25;;;18.29;38.94
10261;BME280;5175;42.606;23.388;2023-03-21T11:30:21;93449.09;;;18.33;38.87
10261;BME280;5175;42.606;23.388;2023-03-21T11:32:50;93450.06;;;18.49;40.44
10261;BME280;5175;42.606;23.388;2023-03-21T11:35:21;93442.78;;;18.86;38.55
10261;BME280;5175;42.606;23.388;2023-03-21T11:37:50;93446.84;;;18.92;38.15
10261;BME280;5175;42.606;23.388;2023-03-21T11:40:20;93420.81;;;18.75;38.46
10261;BME280;5175;42.606;23.388;2023-03-21T11:42:49;93425.66;;;18.94;37.13
10261;BME280;5175;42.606;23.388;2023-03-21T11:45:20;93432.63;;;18.83;36.71
10261;BME280;5175;42.606;23.388;2023-03-21T11:47:49;93437.59;;;18.81;37.01
10261;BME280;5175;42.606;23.388;2023-03-21T11:50:26;93437.25;;;18.94;36.73
10261;BME280;5175;42.606;23.388;2023-03-21T11:53:04;93430.84;;;18.87;36.86
10261;BME280;5175;42.606;23.388;2023-03-21T11:55:41;93433.75;;;18.57;35.73
10261;BME280;5175;42.606;23.388;2023-03-21T11:58:20;93426.22;;;18.63;36.72
10261;BME280;5175;42.606;23.388;2023-03-21T12:00:55;93428.91;;;18.75;37.35
10261;BME280;5175;42.606;23.388;2023-03-21T12:03:46;93415.97;;;18.68;36.47
10261;BME280;5175;42.606;23.388;2023-03-21T12:06:23;93409.09;;;18.71;37.52
10261;BME280;5175;42.606;23.388;2023-03-21T12:08:59;93415.88;;;18.77;35.48
10261;BME280;5175;42.606;23.388;2023-03-21T12:11:34;93408.19;;;18.67;36.64
10261;BME280;5175;42.606;23.388;2023-03-21T12:14:11;93413.59;;;18.79;38.14
10261;BME280;5175;42.606;23.388;2023-03-21T12:16:55;93398.28;;;18.59;36.67
10261;BME280;5175;42.606;23.388;2023-03-21T12:19:42;93406.28;;;18.67;37.73
10261;BME280;5175;42.606;23.388;2023-03-21T12:22:18;93397.28;;;18.51;40.63
10261;BME280;5175;42.606;23.388;2023-03-21T12:24:52;93393.50;;;18.44;39.33
10261;BME280;5175;42.606;23.388;2023-03-21T12:27:27;93396.03;;;18.49;38.24
10261;BME280;5175;42.606;23.388;2023-03-21T12:30:09;93397.16;;;18.60;39.10
10261;BME280;5175;42.606;23.388;2023-03-21T12:32:49;93394.66;;;18.67;38.57
10261;BME280;5175;42.606;23.388;2023-03-21T12:35:29;93396.94;;;18.53;38.25
10261;BME280;5175;42.606;23.388;2023-03-21T12:38:09;93386.69;;;18.58;40.88
10261;BME280;5175;42.606;23.388;2023-03-21T12:40:49;93388.72;;;18.86;39.40
10261;BME280;5175;42.606;23.388;2023-03-21T12:43:30;93383.41;;;18.65;40.13
10261;BME280;5175;42.606;23.388;2023-03-21T12:46:02;93382.84;;;18.96;38.70
10261;BME280;5175;42.606;23.388;2023-03-21T12:48:38;93376.72;;;19.11;40.40
10261;BME280;5175;42.606;23.388;2023-03-21T12:51:11;93386.63;;;19.31;39.24
10261;BME280;5175;42.606;23.388;2023-03-21T12:53:46;93378.28;;;19.24;37.85
10261;BME280;5175;42.606;23.388;2023-03-21T12:56:19;93350.84;;;18.98;40.30
10261;BME280;5175;42.606;23.388;2023-03-21T12:58:51;93368.13;;;19.21;37.37
10261;BME280;5175;42.606;23.388;2023-03-21T13:01:21;93360.72;;;19.18;38.59
10261;BME280;5175;42.606;23.388;2023-03-21T13:03:56;93361.50;;;19.30;37.61
10261;BME280;5175;42.606;23.388;2023-03-21T13:06:26;93356.84;;;19.43;37.97
10261;BME280;5175;42.606;23.388;2023-03-21T13:08:57;93360.28;;;19.04;36.93
10261;BME280;5175;42.606;23.388;2023-03-21T13:11:28;93359.56;;;18.79;37.70
10261;BME280;5175;42.606;23.388;2023-03-21T13:13:59;93349.28;;;18.72;39.63
10261;BME280;5175;42.606;23.388;2023-03-21T13:16:32;93356.72;;;18.75;39.52
10261;BME280;5175;42.606;23.388;2023-03-21T13:19:13;93349.75;;;18.74;38.58
10261;BME280;5175;42.606;23.388;2023-03-21T13:21:49;93358.19;;;18.73;39.42
10261;BME280;5175;42.606;23.388;2023-03-21T13:24:24;93338.59;;;18.52;39.18